sensor_id;sensor_type;location;lat;lon;timestamp;temperature;humidity
20985;DHT22;10651;47.552;7.606;2023-07-22T06:14:14;18.50;99.90
20985;DHT22;10651;47.552;7.606;2023-07-22T06:16:39;18.50;99.90
20985;DHT22;10651;47.552;7.606;2023-07-22T06:19:05;18.50;99.90
20985;DHT22;10651;47.552;7.606;2023-07-22T06:21:31;18.50;99.90
20985;DHT22;10651;47.552;7.606;2023-07-22T06:23:56;18.60;99.90
20985;DHT22;10651;47.552;7.606;2023-07-22T06:26:22;18.70;99.90
20985;DHT22;10651;47.552;7.606;2023-07-22T06:28:48;18.90;99.90
20985;DHT22;10651;47.552;7.606;2023-07-22T06:31:13;18.80;99.90
20985;DHT22;10651;47.552;7.606;2023-07-22T06:33:39;18.90;99.90
20985;DHT22;10651;47.552;7.606;2023-07-22T06:36:05;19.00;99.90
20985;DHT22;10651;47.552;7.606;2023-07-22T06:38:30;19.00;99.90
20985;DHT22;10651;47.552;7.606;2023-07-22T06:40:56;19.10;99.90
20985;DHT22;10651;47.552;7.606;2023-07-22T06:43:23;19.10;99.90
20985;DHT22;10651;47.552;7.606;2023-07-22T06:45:48;19.20;99.90
20985;DHT22;10651;47.552;7.606;2023-07-22T06:48:14;19.20;99.90
20985;DHT22;10651;47.552;7.606;2023-07-22T06:50:39;19.20;99.90
20985;DHT22;10651;47.552;7.606;2023-07-22T06:53:05;19.30;99.90
20985;DHT22;10651;47.552;7.606;2023-07-22T06:55:31;19.30;99.90
20985;DHT22;10651;47.552;7.606;2023-07-22T06:57:56;19.40;99.90
20985;DHT22;10651;47.552;7.606;2023-07-22T07:00:22;19.40;99.90
20985;DHT22;10651;47.552;7.606;2023-07-22T07:02:49;19.50;99.90
20985;DHT22;10651;47.552;7.606;2023-07-22T07:05:15;19.50;99.90
20985;DHT22;10651;47.552;7.606;2023-07-22T07:07:42;19.60;99.90
20985;DHT22;10651;47.552;7.606;2023-07-22T07:10:08;19.60;99.90
20985;DHT22;10651;47.552;7.606;2023-07-22T07:12:33;19.60;99.90
20985;DHT22;10651;47.552;7.606;2023-07-22T07:15:00;19.70;99.90
20985;DHT22;10651;47.552;7.606;2023-07-22T07:17:25;19.80;99.90
20985;DHT22;10651;47.552;7.606;2023-07-22T07:19:51;19.80;99.90
20985;DHT22;10651;47.552;7.606;2023-07-22T07:22:17;19.90;99.90
20985;DHT22;10651;47.552;7.606;2023-07-22T07:24:42;20.00;99.90
20985;DHT22;10651;47.552;7.606;2023-07-22T07:27:08;20.00;99.90
20985;DHT22;10651;47.552;7.606;2023-07-22T07:29:34;20.10;99.90
20985;DHT22;10651;47.552;7.606;2023-07-22T07:31:59;20.10;99.90
20985;DHT22;10651;47.552;7.606;2023-07-22T07:34:25;20.10;99.90
20985;DHT22;10651;47.552;7.606;2023-07-22T07:36:51;20.20;99.90
20985;DHT22;10651;47.552;7.606;2023-07-22T07:39:16;20.20;99.90
20985;DHT22;10651;47.552;7.606;2023-07-22T07:41:42;20.30;99.90
20985;DHT22;10651;47.552;7.606;2023-07-22T07:44:08;20.40;99.90
20985;DHT22;10651;47.552;7.606;2023-07-22T07:46:34;20.40;99.90
20985;DHT22;10651;47.552;7.606;2023-07-22T07:49:00;20.50;99.90
20985;DHT22;10651;47.552;7.606;2023-07-22T07:51:27;20.50;99.90
20985;DHT22;10651;47.552;7.606;2023-07-22T07:53:53;20.60;99.90
20985;DHT22;10651;47.552;7.606;2023-07-22T07:56:20;20.70;99.90
20985;DHT22;10651;47.552;7.606;2023-07-22T07:58:47;20.80;99.90
20985;DHT22;10651;47.552;7.606;2023-07-22T08:01:13;20.80;99.90
20985;DHT22;10651;47.552;7.606;2023-07-22T08:03:40;21.00;99.90
20985;DHT22;10651;47.552;7.606;2023-07-22T08:06:07;21.10;99.90
20985;DHT22;10651;47.552;7.606;2023-07-22T08:08:34;21.10;99.90
20985;DHT22;10651;47.552;7.606;2023-07-22T08:11:01;20.90;99.90
20985;DHT22;10651;47.552;7.606;2023-07-22T08:13:27;21.30;99.90
20985;DHT22;10651;47.552;7.606;2023-07-22T08:15:55;21.40;99.90
20985;DHT22;10651;47.552;7.606;2023-07-22T08:18:21;21.60;99.90
20985;DHT22;10651;47.552;7.606;2023-07-22T08:20:46;21.60;99.90
20985;DHT22;10651;47.552;7.606;2023-07-22T08:23:13;21.80;99.90
20985;DHT22;10651;47.552;7.606;2023-07-22T08:25:39;21.90;99.90
20985;DHT22;10651;47.552;7.606;2023-07-22T08:28:04;22.20;99.90
20985;DHT22;10651;47.552;7.606;2023-07-22T08:30:30;22.40;99.90
20985;DHT22;10651;47.552;7.606;2023-07-22T08:32:56;22.40;99.90
20985;DHT22;10651;47.552;7.606;2023-07-22T08:35:21;22.60;99.90
20985;DHT22;10651;47.552;7.606;2023-07-22T08:37:47;22.70;99.90
20985;DHT22;10651;47.552;7.606;2023-07-22T08:40:13;22.70;99.90
20985;DHT22;10651;47.552;7.606;2023-07-22T08:42:40;22.60;99.90
20985;DHT22;10651;47.552;7.606;2023-07-22T08:45:09;22.60;99.90
20985;DHT22;10651;47.552;7.606;2023-07-22T08:47:39;22.40;99.90
20985;DHT22;10651;47.552;7.606;2023-07-22T08:50:07;22.30;99.90
20985;DHT22;10651;47.552;7.606;2023-07-22T08:52:34;22.20;99.90
20985;DHT22;10651;47.552;7.606;2023-07-22T08:55:01;22.10;99.90
20985;DHT22;10651;47.552;7.606;2023-07-22T08:57:29;22.40;99.90
20985;DHT22;10651;47.552;7.606;2023-07-22T08:59:57;22.70;99.90
20985;DHT22;10651;47.552;7.606;2023-07-22T09:02:24;22.90;99.90
20985;DHT22;10651;47.552;7.606;2023-07-22T09:04:50;23.00;99.90
20985;DHT22;10651;47.552;7.606;2023-07-22T09:07:17;23.30;99.90
20985;DHT22;10651;47.552;7.606;2023-07-22T09:09:45;23.60;99.90
20985;DHT22;10651;47.552;7.606;2023-07-22T09:12:13;23.70;99.90
20985;DHT22;10651;47.552;7.606;2023-07-22T09:14:40;23.90;99.90
20985;DHT22;10651;47.552;7.606;2023-07-22T09:17:06;24.20;99.90
20985;DHT22;10651;47.552;7.606;2023-07-22T09:19:40;24.10;99.90
20985;DHT22;10651;47.552;7.606;2023-07-22T09:39:13;23.80;99.90
20985;DHT22;10651;47.552;7.606;2023-07-22T09:55:01;23.80;99.90
20985;DHT22;10651;47.552;7.606;2023-07-22T10:04:44;24.70;99.90
20985;DHT22;10651;47.552;7.606;2023-07-22T10:07:37;24.90;99.90
20985;DHT22;10651;47.552;7.606;2023-07-22T10:14:25;25.20;99.90
20985;DHT22;10651;47.552;7.606;2023-07-22T10:20:43;25.40;99.90
20985;DHT22;10651;47.552;7.606;2023-07-22T10:23:37;25.40;99.90
20985;DHT22;10651;47.552;7.606;2023-07-22T10:29:47;25.80;99.90
20985;DHT22;10651;47.552;7.606;2023-07-22T10:36:12;25.80;99.90
20985;DHT22;10651;47.552;7.606;2023-07-22T10:46:14;26.10;99.90
20985;DHT22;10651;47.552;7.606;2023-07-22T10:49:24;26.10;99.90
20985;DHT22;10651;47.552;7.606;2023-07-22T11:04:56;26.30;99.90
20985;DHT22;10651;47.552;7.606;2023-07-22T11:07:33;26.30;99.90
20985;DHT22;10651;47.552;7.606;2023-07-22T11:10:14;26.20;99.90
20985;DHT22;10651;47.552;7.606;2023-07-22T11:12:43;26.20;99.90
20985;DHT22;10651;47.552;7.606;2023-07-22T11:15:16;26.30;99.90
20985;DHT22;10651;47.552;7.606;2023-07-22T11:17:52;26.30;99.90
20985;DHT22;10651;47.552;7.606;2023-07-22T11:20:18;26.50;99.90
20985;DHT22;10651;47.552;7.606;2023-07-22T11:25:41;26.80;99.90
20985;DHT22;10651;47.552;7.606;2023-07-22T11:28:08;26.90;99.20
20985;DHT22;10651;47.552;7.606;2023-07-22T11:30:40;27.10;99.90
20985;DHT22;10651;47.552;7.606;2023-07-22T11:33:26;26.70;99.60
20985;DHT22;10651;47.552;7.606;2023-07-22T11:43:28;27.10;98.10
20985;DHT22;10651;47.552;7.606;2023-07-22T11:46:18;27.30;98.30
20985;DHT22;10651;47.552;7.606;2023-07-22T11:57:41;27.50;98.50
20985;DHT22;10651;47.552;7.606;2023-07-22T12:00:10;27.60;98.60
20985;DHT22;10651;47.552;7.606;2023-07-22T12:02:50;27.50;98.30
20985;DHT22;10651;47.552;7.606;2023-07-22T12:05:50;27.30;97.20
20985;DHT22;10651;47.552;7.606;2023-07-22T12:08:52;27.30;98.30
20985;DHT22;10651;47.552;7.606;2023-07-22T12:11:44;27.60;97.20
20985;DHT22;10651;47.552;7.606;2023-07-22T12:14:32;27.70;98.10
20985;DHT22;10651;47.552;7.606;2023-07-22T12:18:06;27.70;97.50
20985;DHT22;10651;47.552;7.606;2023-07-22T12:20:40;27.90;98.10
20985;DHT22;10651;47.552;7.606;2023-07-22T12:26:59;28.00;97.30
20985;DHT22;10651;47.552;7.606;2023-07-22T12:30:20;28.10;96.90
20985;DHT22;10651;47.552;7.606;2023-07-22T12:33:18;28.40;95.50
20985;DHT22;10651;47.552;7.606;2023-07-22T12:39:26;28.30;95.80
20985;DHT22;10651;47.552;7.606;2023-07-22T12:42:24;28.20;94.40
20985;DHT22;10651;47.552;7.606;2023-07-22T12:44:52;28.00;94.30
20985;DHT22;10651;47.552;7.606;2023-07-22T12:47:18;28.10;95.40
20985;DHT22;10651;47.552;7.606;2023-07-22T12:49:44;28.20;95.70
20985;DHT22;10651;47.552;7.606;2023-07-22T12:52:09;28.50;96.50
20985;DHT22;10651;47.552;7.606;2023-07-22T12:54:36;28.70;96.40
20985;DHT22;10651;47.552;7.606;2023-07-22T12:57:02;28.60;96.50
20985;DHT22;10651;47.552;7.606;2023-07-22T12:59:28;28.40;95.70
20985;DHT22;10651;47.552;7.606;2023-07-22T13:02:00;28.40;96.80
20985;DHT22;10651;47.552;7.606;2023-07-22T13:07:58;28.30;96.50
20985;DHT22;10651;47.552;7.606;2023-07-22T13:10:38;28.50;95.90
20985;DHT22;10651;47.552;7.606;2023-07-22T13:13:19;28.30;95.70
20985;DHT22;10651;47.552;7.606;2023-07-22T13:15:51;28.50;95.80
20985;DHT22;10651;47.552;7.606;2023-07-22T13:18:58;28.70;95.20
20985;DHT22;10651;47.552;7.606;2023-07-22T13:21:38;28.70;94.90
20985;DHT22;10651;47.552;7.606;2023-07-22T13:24:21;28.60;95.70
20985;DHT22;10651;47.552;7.606;2023-07-22T13:26:47;28.60;95.70
20985;DHT22;10651;47.552;7.606;2023-07-22T13:29:13;28.80;96.00
20985;DHT22;10651;47.552;7.606;2023-07-22T13:31:39;28.90;95.30
20985;DHT22;10651;47.552;7.606;2023-07-22T13:34:04;28.80;95.70
20985;DHT22;10651;47.552;7.606;2023-07-22T13:36:31;28.80;96.10
20985;DHT22;10651;47.552;7.606;2023-07-22T13:42:44;29.00;95.60
20985;DHT22;10651;47.552;7.606;2023-07-22T13:45:11;29.10;95.50
20985;DHT22;10651;47.552;7.606;2023-07-22T13:47:47;29.10;96.50
20985;DHT22;10651;47.552;7.606;2023-07-22T13:50:22;28.80;95.50
20985;DHT22;10651;47.552;7.606;2023-07-22T13:53:01;28.90;95.30
20985;DHT22;10651;47.552;7.606;2023-07-22T13:56:07;29.10;96.20
20985;DHT22;10651;47.552;7.606;2023-07-22T13:58:37;29.10;95.00
20985;DHT22;10651;47.552;7.606;2023-07-22T14:01:03;28.70;95.70
20985;DHT22;10651;47.552;7.606;2023-07-22T14:03:29;28.80;96.90
20985;DHT22;10651;47.552;7.606;2023-07-22T14:05:55;28.80;97.30
20985;DHT22;10651;47.552;7.606;2023-07-22T14:08:20;28.90;96.10
20985;DHT22;10651;47.552;7.606;2023-07-22T14:10:46;29.00;96.20
20985;DHT22;10651;47.552;7.606;2023-07-22T14:13:12;29.10;95.90
20985;DHT22;10651;47.552;7.606;2023-07-22T14:15:39;29.20;95.90
20985;DHT22;10651;47.552;7.606;2023-07-22T14:18:04;29.10;96.10
20985;DHT22;10651;47.552;7.606;2023-07-22T14:20:31;29.10;96.40
20985;DHT22;10651;47.552;7.606;2023-07-22T14:22:57;29.20;96.60
20985;DHT22;10651;47.552;7.606;2023-07-22T14:25:23;29.00;96.10
20985;DHT22;10651;47.552;7.606;2023-07-22T14:27:49;28.70;96.40
20985;DHT22;10651;47.552;7.606;2023-07-22T14:30:14;28.70;96.40
20985;DHT22;10651;47.552;7.606;2023-07-22T14:32:40;28.80;95.90
20985;DHT22;10651;47.552;7.606;2023-07-22T14:35:06;28.80;95.80
20985;DHT22;10651;47.552;7.606;2023-07-22T14:37:32;28.70;95.50
20985;DHT22;10651;47.552;7.606;2023-07-22T14:39:58;28.60;95.60
20985;DHT22;10651;47.552;7.606;2023-07-22T14:42:23;28.80;95.70
20985;DHT22;10651;47.552;7.606;2023-07-22T14:44:49;29.00;95.40
20985;DHT22;10651;47.552;7.606;2023-07-22T14:47:15;29.00;95.00
20985;DHT22;10651;47.552;7.606;2023-07-22T14:49:41;29.00;95.20
20985;DHT22;10651;47.552;7.606;2023-07-22T14:52:06;28.90;94.90
20985;DHT22;10651;47.552;7.606;2023-07-22T14:54:33;28.90;94.30
20985;DHT22;10651;47.552;7.606;2023-07-22T14:56:58;29.20;94.60
20985;DHT22;10651;47.552;7.606;2023-07-22T14:59:24;29.30;93.70
20985;DHT22;10651;47.552;7.606;2023-07-22T15:01:51;29.10;93.20
20985;DHT22;10651;47.552;7.606;2023-07-22T15:04:18;28.70;93.70
20985;DHT22;10651;47.552;7.606;2023-07-22T15:06:43;28.60;94.00
20985;DHT22;10651;47.552;7.606;2023-07-22T15:09:09;28.40;93.70
20985;DHT22;10651;47.552;7.606;2023-07-22T15:11:36;28.60;93.50
20985;DHT22;10651;47.552;7.606;2023-07-22T15:14:03;28.80;93.40
20985;DHT22;10651;47.552;7.606;2023-07-22T15:16:29;28.50;93.70
20985;DHT22;10651;47.552;7.606;2023-07-22T15:18:54;28.60;93.10
20985;DHT22;10651;47.552;7.606;2023-07-22T15:21:20;28.70;94.20
20985;DHT22;10651;47.552;7.606;2023-07-22T15:23:46;28.80;93.60
20985;DHT22;10651;47.552;7.606;2023-07-22T15:26:12;29.00;93.40
20985;DHT22;10651;47.552;7.606;2023-07-22T15:28:37;29.00;92.70
20985;DHT22;10651;47.552;7.606;2023-07-22T15:31:06;29.10;92.60
20985;DHT22;10651;47.552;7.606;2023-07-22T15:33:31;28.80;91.30
20985;DHT22;10651;47.552;7.606;2023-07-22T15:35:58;28.20;91.80
20985;DHT22;10651;47.552;7.606;2023-07-22T15:38:24;28.30;92.50
20985;DHT22;10651;47.552;7.606;2023-07-22T15:40:50;28.30;92.50
20985;DHT22;10651;47.552;7.606;2023-07-22T15:43:16;28.10;92.30
20985;DHT22;10651;47.552;7.606;2023-07-22T15:45:42;28.10;92.20
20985;DHT22;10651;47.552;7.606;2023-07-22T15:48:08;28.20;92.70
20985;DHT22;10651;47.552;7.606;2023-07-22T15:50:34;28.50;92.40
20985;DHT22;10651;47.552;7.606;2023-07-22T15:52:59;28.50;92.20
20985;DHT22;10651;47.552;7.606;2023-07-22T15:55:25;28.40;91.30
20985;DHT22;10651;47.552;7.606;2023-07-22T15:57:51;28.20;92.10
20985;DHT22;10651;47.552;7.606;2023-07-22T16:00:17;28.10;91.30
20985;DHT22;10651;47.552;7.606;2023-07-22T16:02:42;28.20;91.30
20985;DHT22;10651;47.552;7.606;2023-07-22T16:05:08;28.30;90.60
20985;DHT22;10651;47.552;7.606;2023-07-22T16:07:36;28.20;89.60
20985;DHT22;10651;47.552;7.606;2023-07-22T16:10:02;28.20;90.20
20985;DHT22;10651;47.552;7.606;2023-07-22T16:12:28;28.10;90.00
20985;DHT22;10651;47.552;7.606;2023-07-22T16:14:55;28.20;90.20
20985;DHT22;10651;47.552;7.606;2023-07-22T16:17:21;28.30;91.20
20985;DHT22;10651;47.552;7.606;2023-07-22T16:19:47;28.30;90.40
20985;DHT22;10651;47.552;7.606;2023-07-22T16:22:12;28.30;90.60
20985;DHT22;10651;47.552;7.606;2023-07-22T16:24:38;28.20;90.90
20985;DHT22;10651;47.552;7.606;2023-07-22T16:27:04;28.10;88.40
20985;DHT22;10651;47.552;7.606;2023-07-22T16:29:30;27.90;89.70
20985;DHT22;10651;47.552;7.606;2023-07-22T16:31:56;27.90;88.40
20985;DHT22;10651;47.552;7.606;2023-07-22T16:34:21;27.90;89.00
20985;DHT22;10651;47.552;7.606;2023-07-22T16:36:48;27.80;88.80
20985;DHT22;10651;47.552;7.606;2023-07-22T16:39:13;27.80;88.20
20985;DHT22;10651;47.552;7.606;2023-07-22T16:41:39;27.90;87.60
20985;DHT22;10651;47.552;7.606;2023-07-22T16:44:05;27.90;88.00
20985;DHT22;10651;47.552;7.606;2023-07-22T16:46:32;27.80;89.10
20985;DHT22;10651;47.552;7.606;2023-07-22T16:48:59;27.80;88.70
20985;DHT22;10651;47.552;7.606;2023-07-22T16:51:25;27.80;89.10
20985;DHT22;10651;47.552;7.606;2023-07-22T16:53:51;27.80;89.70
20985;DHT22;10651;47.552;7.606;2023-07-22T16:56:17;27.80;90.60
20985;DHT22;10651;47.552;7.606;2023-07-22T16:58:43;27.80;90.20
20985;DHT22;10651;47.552;7.606;2023-07-22T17:01:08;27.90;89.80
20985;DHT22;10651;47.552;7.606;2023-07-22T17:03:35;27.80;88.60
20985;DHT22;10651;47.552;7.606;2023-07-22T17:06:01;27.40;90.00
20985;DHT22;10651;47.552;7.606;2023-07-22T17:08:27;27.30;90.00
20985;DHT22;10651;47.552;7.606;2023-07-22T17:10:52;27.20;90.30
20985;DHT22;10651;47.552;7.606;2023-07-22T17:13:18;27.00;90.30
20985;DHT22;10651;47.552;7.606;2023-07-22T17:15:44;26.80;91.20
20985;DHT22;10651;47.552;7.606;2023-07-22T17:18:10;26.70;90.90
20985;DHT22;10651;47.552;7.606;2023-07-22T17:20:36;26.70;91.30
20985;DHT22;10651;47.552;7.606;2023-07-22T17:23:02;26.60;91.70
20985;DHT22;10651;47.552;7.606;2023-07-22T17:25:27;26.50;92.20
20985;DHT22;10651;47.552;7.606;2023-07-22T17:27:53;26.40;92.20
20985;DHT22;10651;47.552;7.606;2023-07-22T17:30:19;26.40;92.20
20985;DHT22;10651;47.552;7.606;2023-07-22T17:32:45;26.40;92.30
20985;DHT22;10651;47.552;7.606;2023-07-22T17:35:15;26.30;92.90
20985;DHT22;10651;47.552;7.606;2023-07-22T17:37:40;26.20;92.80
20985;DHT22;10651;47.552;7.606;2023-07-22T17:40:06;26.10;93.30
20985;DHT22;10651;47.552;7.606;2023-07-22T17:42:33;26.10;92.90
20985;DHT22;10651;47.552;7.606;2023-07-22T17:44:58;26.10;93.30
20985;DHT22;10651;47.552;7.606;2023-07-22T17:47:24;26.00;93.40
20985;DHT22;10651;47.552;7.606;2023-07-22T17:49:50;26.00;93.80
20985;DHT22;10651;47.552;7.606;2023-07-22T17:52:15;26.00;93.50
20985;DHT22;10651;47.552;7.606;2023-07-22T17:54:41;26.00;93.60
20985;DHT22;10651;47.552;7.606;2023-07-22T17:57:07;25.90;94.30
20985;DHT22;10651;47.552;7.606;2023-07-22T17:59:32;25.90;94.30
20985;DHT22;10651;47.552;7.606;2023-07-22T18:01:58;25.80;94.70
20985;DHT22;10651;47.552;7.606;2023-07-22T18:04:24;25.80;94.80
20985;DHT22;10651;47.552;7.606;2023-07-22T18:06:50;25.70;95.10
20985;DHT22;10651;47.552;7.606;2023-07-22T18:09:16;25.70;95.00
20985;DHT22;10651;47.552;7.606;2023-07-22T18:11:41;25.60;95.20
20985;DHT22;10651;47.552;7.606;2023-07-22T18:14:11;25.50;95.10
20985;DHT22;10651;47.552;7.606;2023-07-22T18:16:37;25.50;95.30
20985;DHT22;10651;47.552;7.606;2023-07-22T18:19:03;25.50;95.40
20985;DHT22;10651;47.552;7.606;2023-07-22T18:21:28;25.50;95.60
20985;DHT22;10651;47.552;7.606;2023-07-22T18:23:54;25.40;95.60
20985;DHT22;10651;47.552;7.606;2023-07-22T18:26:22;25.30;95.80
20985;DHT22;10651;47.552;7.606;2023-07-22T18:28:48;25.30;95.90
20985;DHT22;10651;47.552;7.606;2023-07-22T18:31:13;25.20;96.30
20985;DHT22;10651;47.552;7.606;2023-07-22T18:33:40;25.20;96.30
20985;DHT22;10651;47.552;7.606;2023-07-22T18:36:06;25.20;96.50
20985;DHT22;10651;47.552;7.606;2023-07-22T18:38:32;25.20;96.40
20985;DHT22;10651;47.552;7.606;2023-07-22T18:40:59;25.20;96.40
20985;DHT22;10651;47.552;7.606;2023-07-22T18:43:25;25.10;96.80
20985;DHT22;10651;47.552;7.606;2023-07-22T18:45:51;25.10;96.40
20985;DHT22;10651;47.552;7.606;2023-07-22T18:48:17;25.10;96.70
20985;DHT22;10651;47.552;7.606;2023-07-22T18:50:42;25.10;97.10
20985;DHT22;10651;47.552;7.606;2023-07-22T18:53:08;25.10;96.90
20985;DHT22;10651;47.552;7.606;2023-07-22T18:55:38;25.00;97.30
20985;DHT22;10651;47.552;7.606;2023-07-22T18:58:05;25.00;97.40
20985;DHT22;10651;47.552;7.606;2023-07-22T19:00:30;25.00;97.50
20985;DHT22;10651;47.552;7.606;2023-07-22T19:02:56;25.00;97.40
20985;DHT22;10651;47.552;7.606;2023-07-22T19:05:22;24.90;97.60
20985;DHT22;10651;47.552;7.606;2023-07-22T19:07:48;24.90;98.10
20985;DHT22;10651;47.552;7.606;2023-07-22T19:10:14;24.90;98.20
20985;DHT22;10651;47.552;7.606;2023-07-22T19:12:39;24.90;98.90
20985;DHT22;10651;47.552;7.606;2023-07-22T19:15:06;24.80;98.50
20985;DHT22;10651;47.552;7.606;2023-07-22T19:17:31;24.80;98.70
20985;DHT22;10651;47.552;7.606;2023-07-22T19:19:57;24.70;98.90
20985;DHT22;10651;47.552;7.606;2023-07-22T19:22:23;24.70;98.70
20985;DHT22;10651;47.552;7.606;2023-07-22T19:24:48;24.60;98.60
20985;DHT22;10651;47.552;7.606;2023-07-22T19:27:14;24.60;98.70
20985;DHT22;10651;47.552;7.606;2023-07-22T19:29:42;24.50;98.80
20985;DHT22;10651;47.552;7.606;2023-07-22T19:32:07;24.50;99.10
20985;DHT22;10651;47.552;7.606;2023-07-22T19:34:33;24.50;99.30
20985;DHT22;10651;47.552;7.606;2023-07-22T19:37:02;24.40;99.60
20985;DHT22;10651;47.552;7.606;2023-07-22T19:39:28;24.30;99.20
20985;DHT22;10651;47.552;7.606;2023-07-22T19:41:53;24.30;99.40
20985;DHT22;10651;47.552;7.606;2023-07-22T19:44:19;24.30;99.90
20985;DHT22;10651;47.552;7.606;2023-07-22T19:46:45;24.30;99.90
20985;DHT22;10651;47.552;7.606;2023-07-22T19:49:10;24.20;99.80
20985;DHT22;10651;47.552;7.606;2023-07-22T19:51:36;24.20;99.80
20985;DHT22;10651;47.552;7.606;2023-07-22T19:54:02;24.10;99.80
20985;DHT22;10651;47.552;7.606;2023-07-22T19:56:28;24.10;99.90
20985;DHT22;10651;47.552;7.606;2023-07-22T19:58:53;24.10;99.90
20985;DHT22;10651;47.552;7.606;2023-07-22T20:01:19;24.00;99.90
20985;DHT22;10651;47.552;7.606;2023-07-22T20:03:45;23.90;99.90
20985;DHT22;10651;47.552;7.606;2023-07-22T20:06:10;23.90;99.90
20985;DHT22;10651;47.552;7.606;2023-07-22T20:08:37;23.80;99.90
20985;DHT22;10651;47.552;7.606;2023-07-22T20:11:03;23.80;99.90
20985;DHT22;10651;47.552;7.606;2023-07-22T20:13:31;23.80;99.90
20985;DHT22;10651;47.552;7.606;2023-07-22T20:15:57;23.80;99.90
20985;DHT22;10651;47.552;7.606;2023-07-22T20:18:23;23.80;99.90
20985;DHT22;10651;47.552;7.606;2023-07-22T20:20:48;23.70;99.90
20985;DHT22;10651;47.552;7.606;2023-07-22T20:23:14;23.70;99.90
20985;DHT22;10651;47.552;7.606;2023-07-22T20:25:40;23.70;99.90
20985;DHT22;10651;47.552;7.606;2023-07-22T20:28:06;23.60;99.90
20985;DHT22;10651;47.552;7.606;2023-07-22T20:30:32;23.60;99.90
20985;DHT22;10651;47.552;7.606;2023-07-22T20:32:57;23.50;99.90
20985;DHT22;10651;47.552;7.606;2023-07-22T20:35:23;23.50;99.90
20985;DHT22;10651;47.552;7.606;2023-07-22T20:37:49;23.50;99.90
20985;DHT22;10651;47.552;7.606;2023-07-22T20:40:15;23.40;99.90
20985;DHT22;10651;47.552;7.606;2023-07-22T20:42:41;23.30;99.90
20985;DHT22;10651;47.552;7.606;2023-07-22T20:45:08;23.20;99.90
20985;DHT22;10651;47.552;7.606;2023-07-22T20:47:34;23.20;99.90
20985;DHT22;10651;47.552;7.606;2023-07-22T20:50:00;23.20;99.90
20985;DHT22;10651;47.552;7.606;2023-07-22T20:52:26;23.20;99.90
20985;DHT22;10651;47.552;7.606;2023-07-22T20:54:51;23.10;99.90
20985;DHT22;10651;47.552;7.606;2023-07-22T20:57:17;23.00;99.90
20985;DHT22;10651;47.552;7.606;2023-07-22T20:59:48;23.00;99.90
20985;DHT22;10651;47.552;7.606;2023-07-22T21:02:14;22.90;99.90
20985;DHT22;10651;47.552;7.606;2023-07-22T21:04:41;22.90;99.90
20985;DHT22;10651;47.552;7.606;2023-07-22T21:07:08;22.80;99.90
20985;DHT22;10651;47.552;7.606;2023-07-22T21:09:34;22.80;99.90
20985;DHT22;10651;47.552;7.606;2023-07-22T21:12:00;22.70;99.90
20985;DHT22;10651;47.552;7.606;2023-07-22T21:14:26;22.70;99.90
20985;DHT22;10651;47.552;7.606;2023-07-22T21:16:52;22.70;99.90
20985;DHT22;10651;47.552;7.606;2023-07-22T21:19:18;22.70;99.90
20985;DHT22;10651;47.552;7.606;2023-07-22T21:21:44;22.60;99.90
20985;DHT22;10651;47.552;7.606;2023-07-22T21:24:10;22.60;99.90
20985;DHT22;10651;47.552;7.606;2023-07-22T21:26:35;22.60;99.90
